Startpagina
METAR-TAF:

METAR-TAF

Vliegvelden :

Anchorage, Alaska, Verenigde Staten

breedte: 61-11N, lengte: 149-58W, hoogte: 22 m

Actueel weer

Dit bericht is 1 uur en het 1 minuten geleden gemaakt, om 01:53 UTC
Wind 5 kt uit het zuidzuidwesten
Temperatuur -1°C
Vochtigheid 80%
Druk 996 hPa
Zicht: 16.1 km
Gebroken wolken op 3200 ft
Geheel bewolkt op 4600 ft

METAR: PALH 200153Z 21005KT 10SM BKN032 OVC046 M01/M04 A2942 RMK AO2 SLP961 T10061044

Tijdstip: 17:54 (02:54 UTC)


TAF: ontbreekt

Waarnemingen en weersverwachtingen van meer dan 4000 vliegvelden (METAR en TAF).

De beschikbare stations zijn de gele en rode punten op de kaart.

Ga met uw muis naar het station om de naam te zien.

Klik dan om waarnemingen en weersverwachtingen te zien.

kaart wijzigen: klik op de groene knoppen met een zwart kruis om in te zoomen, op de groene knop met een streepje om uit te zoomen of op de groene pijlen voor aangrenzende kaarten.


METAR-TAF: